sensor_id;sensor_type;location;lat;lon;timestamp;P1;durP1;ratioP1;P2;durP2;ratioP2
22111;SDS011;11222;50.872;4.312;2023-02-22T00:00:16;98.00;;;27.88;;
22111;SDS011;11222;50.872;4.312;2023-02-22T00:02:44;77.30;;;29.25;;
22111;SDS011;11222;50.872;4.312;2023-02-22T00:05:12;74.47;;;28.58;;
22111;SDS011;11222;50.872;4.312;2023-02-22T00:07:41;108.65;;;30.77;;
22111;SDS011;11222;50.872;4.312;2023-02-22T00:10:08;78.47;;;27.60;;
22111;SDS011;11222;50.872;4.312;2023-02-22T00:12:38;85.15;;;30.17;;
22111;SDS011;11222;50.872;4.312;2023-02-22T00:15:07;83.90;;;29.73;;
22111;SDS011;11222;50.872;4.312;2023-02-22T00:17:34;101.80;;;28.92;;
22111;SDS011;11222;50.872;4.312;2023-02-22T00:20:00;110.78;;;29.67;;
22111;SDS011;11222;50.872;4.312;2023-02-22T00:22:26;97.43;;;29.05;;
22111;SDS011;11222;50.872;4.312;2023-02-22T00:24:51;84.60;;;30.02;;
22111;SDS011;11222;50.872;4.312;2023-02-22T00:27:17;106.35;;;31.17;;
22111;SDS011;11222;50.872;4.312;2023-02-22T00:29:45;92.82;;;30.40;;
22111;SDS011;11222;50.872;4.312;2023-02-22T00:32:11;153.90;;;29.50;;
22111;SDS011;11222;50.872;4.312;2023-02-22T00:34:37;129.23;;;29.85;;
22111;SDS011;11222;50.872;4.312;2023-02-22T00:37:03;171.40;;;29.02;;
22111;SDS011;11222;50.872;4.312;2023-02-22T00:39:29;235.77;;;31.77;;
22111;SDS011;11222;50.872;4.312;2023-02-22T00:41:55;158.57;;;30.50;;
22111;SDS011;11222;50.872;4.312;2023-02-22T00:44:21;181.68;;;30.30;;
22111;SDS011;11222;50.872;4.312;2023-02-22T00:46:47;155.82;;;30.65;;
22111;SDS011;11222;50.872;4.312;2023-02-22T00:49:14;130.15;;;29.83;;
22111;SDS011;11222;50.872;4.312;2023-02-22T00:51:40;180.77;;;31.48;;
22111;SDS011;11222;50.872;4.312;2023-02-22T00:54:06;189.40;;;32.05;;
22111;SDS011;11222;50.872;4.312;2023-02-22T00:56:32;143.85;;;27.88;;
22111;SDS011;11222;50.872;4.312;2023-02-22T00:58:58;140.45;;;29.98;;
22111;SDS011;11222;50.872;4.312;2023-02-22T01:01:25;201.27;;;31.98;;
22111;SDS011;11222;50.872;4.312;2023-02-22T01:03:51;160.15;;;30.02;;
22111;SDS011;11222;50.872;4.312;2023-02-22T01:06:18;171.73;;;30.35;;
22111;SDS011;11222;50.872;4.312;2023-02-22T01:08:44;162.57;;;30.45;;
22111;SDS011;11222;50.872;4.312;2023-02-22T01:11:11;122.65;;;26.95;;
22111;SDS011;11222;50.872;4.312;2023-02-22T01:13:37;147.30;;;25.60;;
22111;SDS011;11222;50.872;4.312;2023-02-22T01:16:03;165.20;;;29.35;;
22111;SDS011;11222;50.872;4.312;2023-02-22T01:18:32;137.38;;;28.73;;
22111;SDS011;11222;50.872;4.312;2023-02-22T01:20:59;136.48;;;28.60;;
22111;SDS011;11222;50.872;4.312;2023-02-22T01:23:26;153.73;;;29.67;;
22111;SDS011;11222;50.872;4.312;2023-02-22T01:25:51;207.30;;;33.63;;
22111;SDS011;11222;50.872;4.312;2023-02-22T01:28:18;113.45;;;28.67;;
22111;SDS011;11222;50.872;4.312;2023-02-22T01:30:43;140.35;;;27.88;;
22111;SDS011;11222;50.872;4.312;2023-02-22T01:33:09;135.32;;;27.92;;
22111;SDS011;11222;50.872;4.312;2023-02-22T01:35:37;210.43;;;31.30;;
22111;SDS011;11222;50.872;4.312;2023-02-22T01:38:04;114.97;;;28.65;;
22111;SDS011;11222;50.872;4.312;2023-02-22T01:40:35;157.30;;;30.52;;
22111;SDS011;11222;50.872;4.312;2023-02-22T01:45:52;116.43;;;29.67;;
22111;SDS011;11222;50.872;4.312;2023-02-22T01:51:02;86.55;;;27.38;;
22111;SDS011;11222;50.872;4.312;2023-02-22T01:56:23;88.50;;;29.63;;
22111;SDS011;11222;50.872;4.312;2023-02-22T01:59:00;94.65;;;28.10;;
22111;SDS011;11222;50.872;4.312;2023-02-22T02:01:30;88.63;;;27.48;;
22111;SDS011;11222;50.872;4.312;2023-02-22T02:03:58;90.38;;;28.23;;
22111;SDS011;11222;50.872;4.312;2023-02-22T02:06:30;80.60;;;27.20;;
22111;SDS011;11222;50.872;4.312;2023-02-22T02:08:59;66.55;;;27.48;;
22111;SDS011;11222;50.872;4.312;2023-02-22T02:11:46;79.70;;;26.55;;
22111;SDS011;11222;50.872;4.312;2023-02-22T02:14:13;65.90;;;27.15;;
22111;SDS011;11222;50.872;4.312;2023-02-22T02:16:43;57.88;;;26.90;;
22111;SDS011;11222;50.872;4.312;2023-02-22T02:19:17;77.95;;;25.65;;
22111;SDS011;11222;50.872;4.312;2023-02-22T02:25:18;66.72;;;25.33;;
22111;SDS011;11222;50.872;4.312;2023-02-22T02:36:18;55.13;;;25.08;;
22111;SDS011;11222;50.872;4.312;2023-02-22T02:39:08;55.63;;;25.83;;
22111;SDS011;11222;50.872;4.312;2023-02-22T02:41:57;57.13;;;26.25;;
22111;SDS011;11222;50.872;4.312;2023-02-22T02:44:35;56.22;;;25.35;;
22111;SDS011;11222;50.872;4.312;2023-02-22T02:47:26;55.92;;;25.85;;
22111;SDS011;11222;50.872;4.312;2023-02-22T02:50:07;52.85;;;26.20;;
22111;SDS011;11222;50.872;4.312;2023-02-22T02:52:48;51.78;;;26.17;;
22111;SDS011;11222;50.872;4.312;2023-02-22T02:55:17;50.70;;;25.58;;
22111;SDS011;11222;50.872;4.312;2023-02-22T02:57:43;54.58;;;25.95;;
22111;SDS011;11222;50.872;4.312;2023-02-22T03:00:09;48.90;;;23.90;;
22111;SDS011;11222;50.872;4.312;2023-02-22T03:05:46;48.22;;;25.17;;
22111;SDS011;11222;50.872;4.312;2023-02-22T03:11:23;47.10;;;24.10;;
22111;SDS011;11222;50.872;4.312;2023-02-22T03:14:03;48.80;;;24.98;;
22111;SDS011;11222;50.872;4.312;2023-02-22T03:16:51;47.00;;;24.42;;
22111;SDS011;11222;50.872;4.312;2023-02-22T03:22:15;43.40;;;21.95;;
22111;SDS011;11222;50.872;4.312;2023-02-22T03:25:09;38.20;;;21.55;;
22111;SDS011;11222;50.872;4.312;2023-02-22T03:27:51;44.65;;;22.02;;
22111;SDS011;11222;50.872;4.312;2023-02-22T03:32:59;43.30;;;22.80;;
22111;SDS011;11222;50.872;4.312;2023-02-22T03:35:33;41.30;;;22.05;;
22111;SDS011;11222;50.872;4.312;2023-02-22T03:38:07;37.35;;;21.10;;
22111;SDS011;11222;50.872;4.312;2023-02-22T03:40:36;40.40;;;21.20;;
22111;SDS011;11222;50.872;4.312;2023-02-22T03:43:09;40.50;;;21.92;;
22111;SDS011;11222;50.872;4.312;2023-02-22T03:45:39;39.35;;;21.95;;
22111;SDS011;11222;50.872;4.312;2023-02-22T03:51:14;39.92;;;21.35;;
22111;SDS011;11222;50.872;4.312;2023-02-22T03:53:42;38.13;;;20.45;;
22111;SDS011;11222;50.872;4.312;2023-02-22T03:56:16;36.70;;;20.83;;
22111;SDS011;11222;50.872;4.312;2023-02-22T03:59:04;37.65;;;21.48;;
22111;SDS011;11222;50.872;4.312;2023-02-22T04:01:32;38.05;;;21.80;;
22111;SDS011;11222;50.872;4.312;2023-02-22T04:03:58;40.22;;;21.25;;
22111;SDS011;11222;50.872;4.312;2023-02-22T04:06:24;33.40;;;19.30;;
22111;SDS011;11222;50.872;4.312;2023-02-22T04:08:50;36.58;;;21.08;;
22111;SDS011;11222;50.872;4.312;2023-02-22T04:11:16;33.38;;;19.85;;
22111;SDS011;11222;50.872;4.312;2023-02-22T04:13:42;33.55;;;21.17;;
22111;SDS011;11222;50.872;4.312;2023-02-22T04:16:07;36.00;;;19.88;;
22111;SDS011;11222;50.872;4.312;2023-02-22T04:18:33;33.72;;;20.67;;
22111;SDS011;11222;50.872;4.312;2023-02-22T04:20:59;37.95;;;20.42;;
22111;SDS011;11222;50.872;4.312;2023-02-22T04:23:24;34.47;;;19.25;;
22111;SDS011;11222;50.872;4.312;2023-02-22T04:25:51;36.30;;;21.67;;
22111;SDS011;11222;50.872;4.312;2023-02-22T04:28:17;32.67;;;19.70;;
22111;SDS011;11222;50.872;4.312;2023-02-22T04:30:43;33.63;;;19.98;;
22111;SDS011;11222;50.872;4.312;2023-02-22T04:33:10;35.10;;;20.13;;
22111;SDS011;11222;50.872;4.312;2023-02-22T04:35:36;37.60;;;20.27;;
22111;SDS011;11222;50.872;4.312;2023-02-22T04:38:01;34.17;;;19.20;;
22111;SDS011;11222;50.872;4.312;2023-02-22T04:40:28;34.20;;;19.73;;
22111;SDS011;11222;50.872;4.312;2023-02-22T04:42:54;34.20;;;19.33;;
22111;SDS011;11222;50.872;4.312;2023-02-22T04:45:20;37.05;;;19.88;;
22111;SDS011;11222;50.872;4.312;2023-02-22T04:47:46;29.63;;;19.02;;
22111;SDS011;11222;50.872;4.312;2023-02-22T04:50:12;31.83;;;18.90;;
22111;SDS011;11222;50.872;4.312;2023-02-22T04:52:38;33.67;;;18.90;;
22111;SDS011;11222;50.872;4.312;2023-02-22T04:55:04;31.52;;;19.25;;
22111;SDS011;11222;50.872;4.312;2023-02-22T04:57:30;32.65;;;18.63;;
22111;SDS011;11222;50.872;4.312;2023-02-22T04:59:56;30.27;;;18.52;;
22111;SDS011;11222;50.872;4.312;2023-02-22T05:02:22;29.90;;;17.85;;
22111;SDS011;11222;50.872;4.312;2023-02-22T05:04:48;29.85;;;19.10;;
22111;SDS011;11222;50.872;4.312;2023-02-22T05:07:14;29.15;;;17.40;;
22111;SDS011;11222;50.872;4.312;2023-02-22T05:09:40;30.20;;;18.15;;
22111;SDS011;11222;50.872;4.312;2023-02-22T05:12:06;25.42;;;16.58;;
22111;SDS011;11222;50.872;4.312;2023-02-22T05:14:32;28.40;;;17.40;;
22111;SDS011;11222;50.872;4.312;2023-02-22T05:16:57;29.00;;;17.75;;
22111;SDS011;11222;50.872;4.312;2023-02-22T05:19:23;28.92;;;17.27;;
22111;SDS011;11222;50.872;4.312;2023-02-22T05:21:49;29.70;;;18.13;;
22111;SDS011;11222;50.872;4.312;2023-02-22T05:24:15;28.85;;;17.42;;
22111;SDS011;11222;50.872;4.312;2023-02-22T05:26:44;26.52;;;16.17;;
22111;SDS011;11222;50.872;4.312;2023-02-22T05:29:10;25.98;;;17.23;;
22111;SDS011;11222;50.872;4.312;2023-02-22T05:31:36;28.67;;;17.67;;
22111;SDS011;11222;50.872;4.312;2023-02-22T05:34:02;24.42;;;16.60;;
22111;SDS011;11222;50.872;4.312;2023-02-22T05:36:28;27.02;;;16.38;;
22111;SDS011;11222;50.872;4.312;2023-02-22T05:38:54;23.90;;;14.82;;
22111;SDS011;11222;50.872;4.312;2023-02-22T05:41:20;24.52;;;15.30;;
22111;SDS011;11222;50.872;4.312;2023-02-22T05:43:46;22.85;;;14.98;;
22111;SDS011;11222;50.872;4.312;2023-02-22T05:46:12;23.30;;;15.10;;
22111;SDS011;11222;50.872;4.312;2023-02-22T05:48:38;23.13;;;15.20;;
22111;SDS011;11222;50.872;4.312;2023-02-22T05:51:04;22.92;;;14.73;;
22111;SDS011;11222;50.872;4.312;2023-02-22T05:53:30;22.83;;;14.95;;
22111;SDS011;11222;50.872;4.312;2023-02-22T05:55:56;22.70;;;15.13;;
22111;SDS011;11222;50.872;4.312;2023-02-22T05:58:21;23.27;;;15.35;;
22111;SDS011;11222;50.872;4.312;2023-02-22T06:00:47;23.75;;;15.10;;
22111;SDS011;11222;50.872;4.312;2023-02-22T06:03:13;21.45;;;14.88;;
22111;SDS011;11222;50.872;4.312;2023-02-22T06:05:38;23.98;;;15.18;;
22111;SDS011;11222;50.872;4.312;2023-02-22T06:08:05;21.65;;;14.40;;
22111;SDS011;11222;50.872;4.312;2023-02-22T06:10:32;23.48;;;14.85;;
22111;SDS011;11222;50.872;4.312;2023-02-22T06:12:58;23.25;;;14.68;;
22111;SDS011;11222;50.872;4.312;2023-02-22T06:15:25;22.52;;;14.30;;
22111;SDS011;11222;50.872;4.312;2023-02-22T06:17:52;19.60;;;13.88;;
22111;SDS011;11222;50.872;4.312;2023-02-22T06:20:20;19.50;;;13.25;;
22111;SDS011;11222;50.872;4.312;2023-02-22T06:22:50;21.00;;;13.77;;
22111;SDS011;11222;50.872;4.312;2023-02-22T06:25:20;21.52;;;14.40;;
22111;SDS011;11222;50.872;4.312;2023-02-22T06:27:48;22.17;;;14.63;;
22111;SDS011;11222;50.872;4.312;2023-02-22T06:30:14;24.65;;;14.20;;
22111;SDS011;11222;50.872;4.312;2023-02-22T06:32:42;21.83;;;14.00;;
22111;SDS011;11222;50.872;4.312;2023-02-22T06:35:07;25.58;;;14.55;;
22111;SDS011;11222;50.872;4.312;2023-02-22T06:37:33;23.85;;;14.43;;
22111;SDS011;11222;50.872;4.312;2023-02-22T06:39:59;24.60;;;14.50;;
22111;SDS011;11222;50.872;4.312;2023-02-22T06:42:25;21.90;;;13.70;;
22111;SDS011;11222;50.872;4.312;2023-02-22T06:44:51;22.48;;;13.65;;
22111;SDS011;11222;50.872;4.312;2023-02-22T06:47:16;28.52;;;15.80;;
22111;SDS011;11222;50.872;4.312;2023-02-22T06:49:42;23.00;;;14.73;;
22111;SDS011;11222;50.872;4.312;2023-02-22T06:52:08;21.85;;;14.82;;
22111;SDS011;11222;50.872;4.312;2023-02-22T06:54:34;25.27;;;15.48;;
22111;SDS011;11222;50.872;4.312;2023-02-22T06:57:01;29.25;;;15.45;;
22111;SDS011;11222;50.872;4.312;2023-02-22T06:59:26;28.88;;;14.77;;
22111;SDS011;11222;50.872;4.312;2023-02-22T07:01:52;28.95;;;16.95;;
22111;SDS011;11222;50.872;4.312;2023-02-22T07:04:19;26.48;;;16.67;;
22111;SDS011;11222;50.872;4.312;2023-02-22T07:06:45;28.83;;;18.45;;
22111;SDS011;11222;50.872;4.312;2023-02-22T07:09:12;31.02;;;19.65;;
22111;SDS011;11222;50.872;4.312;2023-02-22T07:11:39;29.20;;;17.88;;
22111;SDS011;11222;50.872;4.312;2023-02-22T07:14:04;26.92;;;17.33;;
22111;SDS011;11222;50.872;4.312;2023-02-22T07:16:31;24.63;;;16.77;;
22111;SDS011;11222;50.872;4.312;2023-02-22T07:18:57;28.10;;;18.42;;
22111;SDS011;11222;50.872;4.312;2023-02-22T07:21:24;31.88;;;19.30;;
22111;SDS011;11222;50.872;4.312;2023-02-22T07:23:54;33.78;;;18.75;;
22111;SDS011;11222;50.872;4.312;2023-02-22T07:26:21;26.13;;;16.85;;
22111;SDS011;11222;50.872;4.312;2023-02-22T07:28:47;29.80;;;17.05;;
22111;SDS011;11222;50.872;4.312;2023-02-22T07:31:13;24.73;;;15.55;;
22111;SDS011;11222;50.872;4.312;2023-02-22T07:33:39;30.27;;;17.05;;
22111;SDS011;11222;50.872;4.312;2023-02-22T07:36:05;24.88;;;16.83;;
22111;SDS011;11222;50.872;4.312;2023-02-22T07:38:31;23.38;;;15.25;;
22111;SDS011;11222;50.872;4.312;2023-02-22T07:40:56;24.38;;;15.25;;
22111;SDS011;11222;50.872;4.312;2023-02-22T07:43:23;30.10;;;14.77;;
22111;SDS011;11222;50.872;4.312;2023-02-22T07:45:51;23.52;;;15.48;;
22111;SDS011;11222;50.872;4.312;2023-02-22T07:48:19;29.42;;;15.30;;
22111;SDS011;11222;50.872;4.312;2023-02-22T07:50:46;27.35;;;14.95;;
22111;SDS011;11222;50.872;4.312;2023-02-22T07:53:16;23.90;;;14.48;;
22111;SDS011;11222;50.872;4.312;2023-02-22T07:55:44;27.58;;;14.43;;
22111;SDS011;11222;50.872;4.312;2023-02-22T07:58:14;23.08;;;14.43;;
22111;SDS011;11222;50.872;4.312;2023-02-22T08:00:41;25.40;;;14.00;;
22111;SDS011;11222;50.872;4.312;2023-02-22T08:03:10;21.88;;;14.45;;
22111;SDS011;11222;50.872;4.312;2023-02-22T08:05:37;27.50;;;14.15;;
22111;SDS011;11222;50.872;4.312;2023-02-22T08:08:04;29.60;;;14.40;;
22111;SDS011;11222;50.872;4.312;2023-02-22T08:10:31;24.23;;;13.68;;
22111;SDS011;11222;50.872;4.312;2023-02-22T08:12:58;23.30;;;13.85;;
22111;SDS011;11222;50.872;4.312;2023-02-22T08:15:27;22.83;;;13.90;;
22111;SDS011;11222;50.872;4.312;2023-02-22T08:17:55;23.67;;;13.77;;
22111;SDS011;11222;50.872;4.312;2023-02-22T08:20:22;20.15;;;13.23;;
22111;SDS011;11222;50.872;4.312;2023-02-22T08:22:48;20.98;;;13.32;;
22111;SDS011;11222;50.872;4.312;2023-02-22T08:25:15;23.73;;;13.68;;
22111;SDS011;11222;50.872;4.312;2023-02-22T08:27:42;21.80;;;13.10;;
22111;SDS011;11222;50.872;4.312;2023-02-22T08:30:10;21.17;;;12.93;;
22111;SDS011;11222;50.872;4.312;2023-02-22T08:32:44;21.20;;;12.75;;
22111;SDS011;11222;50.872;4.312;2023-02-22T08:35:11;22.63;;;12.90;;
22111;SDS011;11222;50.872;4.312;2023-02-22T08:37:40;23.35;;;12.63;;
22111;SDS011;11222;50.872;4.312;2023-02-22T08:40:08;19.83;;;12.90;;
22111;SDS011;11222;50.872;4.312;2023-02-22T08:42:34;20.13;;;12.95;;
22111;SDS011;11222;50.872;4.312;2023-02-22T08:45:00;22.92;;;12.43;;
22111;SDS011;11222;50.872;4.312;2023-02-22T08:47:25;24.80;;;13.25;;
22111;SDS011;11222;50.872;4.312;2023-02-22T08:49:51;20.10;;;13.07;;
22111;SDS011;11222;50.872;4.312;2023-02-22T08:52:17;21.77;;;12.23;;
22111;SDS011;11222;50.872;4.312;2023-02-22T08:54:45;20.33;;;12.77;;
22111;SDS011;11222;50.872;4.312;2023-02-22T08:57:11;21.55;;;12.50;;
22111;SDS011;11222;50.872;4.312;2023-02-22T08:59:37;19.92;;;12.52;;
22111;SDS011;11222;50.872;4.312;2023-02-22T09:02:03;20.08;;;13.10;;
22111;SDS011;11222;50.872;4.312;2023-02-22T09:04:29;19.77;;;12.07;;
22111;SDS011;11222;50.872;4.312;2023-02-22T09:06:54;21.63;;;13.07;;
22111;SDS011;11222;50.872;4.312;2023-02-22T09:09:20;24.30;;;13.68;;
22111;SDS011;11222;50.872;4.312;2023-02-22T09:11:46;23.35;;;13.75;;
22111;SDS011;11222;50.872;4.312;2023-02-22T09:14:13;23.58;;;13.00;;
22111;SDS011;11222;50.872;4.312;2023-02-22T09:16:39;21.15;;;12.88;;
22111;SDS011;11222;50.872;4.312;2023-02-22T09:19:05;21.20;;;13.65;;
22111;SDS011;11222;50.872;4.312;2023-02-22T09:21:30;20.77;;;13.95;;
22111;SDS011;11222;50.872;4.312;2023-02-22T09:23:56;25.48;;;13.38;;
22111;SDS011;11222;50.872;4.312;2023-02-22T09:26:22;22.67;;;14.52;;
22111;SDS011;11222;50.872;4.312;2023-02-22T09:28:48;22.67;;;13.40;;
22111;SDS011;11222;50.872;4.312;2023-02-22T09:31:14;21.02;;;13.68;;
22111;SDS011;11222;50.872;4.312;2023-02-22T09:33:40;21.90;;;13.65;;
22111;SDS011;11222;50.872;4.312;2023-02-22T09:36:06;21.33;;;13.27;;
22111;SDS011;11222;50.872;4.312;2023-02-22T09:38:32;25.92;;;14.23;;
22111;SDS011;11222;50.872;4.312;2023-02-22T09:43:32;21.90;;;14.85;;
22111;SDS011;11222;50.872;4.312;2023-02-22T09:49:01;32.83;;;15.35;;
22111;SDS011;11222;50.872;4.312;2023-02-22T09:57:06;26.92;;;16.10;;
22111;SDS011;11222;50.872;4.312;2023-02-22T09:59:39;27.67;;;15.30;;
22111;SDS011;11222;50.872;4.312;2023-02-22T10:05:39;23.42;;;15.38;;
22111;SDS011;11222;50.872;4.312;2023-02-22T10:08:12;24.38;;;14.25;;
22111;SDS011;11222;50.872;4.312;2023-02-22T10:10:43;25.17;;;14.63;;
22111;SDS011;11222;50.872;4.312;2023-02-22T10:19:06;24.40;;;15.83;;
22111;SDS011;11222;50.872;4.312;2023-02-22T10:24:43;23.52;;;15.63;;
22111;SDS011;11222;50.872;4.312;2023-02-22T10:27:15;27.70;;;16.25;;
22111;SDS011;11222;50.872;4.312;2023-02-22T10:29:48;24.60;;;15.63;;
22111;SDS011;11222;50.872;4.312;2023-02-22T10:32:30;26.38;;;16.00;;
22111;SDS011;11222;50.872;4.312;2023-02-22T10:35:05;27.05;;;16.20;;
22111;SDS011;11222;50.872;4.312;2023-02-22T10:37:51;24.83;;;16.13;;
22111;SDS011;11222;50.872;4.312;2023-02-22T10:40:21;26.65;;;16.30;;
22111;SDS011;11222;50.872;4.312;2023-02-22T10:42:56;25.38;;;16.90;;
22111;SDS011;11222;50.872;4.312;2023-02-22T10:45:28;33.47;;;16.95;;
22111;SDS011;11222;50.872;4.312;2023-02-22T10:47:57;26.95;;;17.17;;
22111;SDS011;11222;50.872;4.312;2023-02-22T10:50:37;25.25;;;17.00;;
22111;SDS011;11222;50.872;4.312;2023-02-22T10:53:05;25.67;;;17.83;;
22111;SDS011;11222;50.872;4.312;2023-02-22T10:55:32;30.08;;;18.20;;
22111;SDS011;11222;50.872;4.312;2023-02-22T10:58:02;27.27;;;18.42;;
22111;SDS011;11222;50.872;4.312;2023-02-22T11:00:34;25.00;;;18.40;;
22111;SDS011;11222;50.872;4.312;2023-02-22T11:03:05;26.75;;;18.75;;
22111;SDS011;11222;50.872;4.312;2023-02-22T11:05:44;29.38;;;18.75;;
22111;SDS011;11222;50.872;4.312;2023-02-22T11:10:41;32.13;;;20.25;;
22111;SDS011;11222;50.872;4.312;2023-02-22T11:16:16;30.98;;;19.42;;
22111;SDS011;11222;50.872;4.312;2023-02-22T11:18:43;28.35;;;20.08;;
22111;SDS011;11222;50.872;4.312;2023-02-22T11:21:11;30.45;;;20.45;;
22111;SDS011;11222;50.872;4.312;2023-02-22T11:23:39;34.25;;;20.98;;
22111;SDS011;11222;50.872;4.312;2023-02-22T11:26:10;33.33;;;21.20;;
22111;SDS011;11222;50.872;4.312;2023-02-22T11:28:40;32.92;;;21.58;;
22111;SDS011;11222;50.872;4.312;2023-02-22T11:31:16;30.45;;;21.77;;
22111;SDS011;11222;50.872;4.312;2023-02-22T11:33:50;29.75;;;21.50;;
22111;SDS011;11222;50.872;4.312;2023-02-22T11:36:29;33.45;;;23.05;;
22111;SDS011;11222;50.872;4.312;2023-02-22T11:41:56;33.03;;;23.80;;
22111;SDS011;11222;50.872;4.312;2023-02-22T11:44:26;29.88;;;22.45;;
22111;SDS011;11222;50.872;4.312;2023-02-22T11:46:54;37.22;;;24.10;;
22111;SDS011;11222;50.872;4.312;2023-02-22T11:49:32;33.33;;;24.05;;
22111;SDS011;11222;50.872;4.312;2023-02-22T11:55:31;41.70;;;24.00;;
22111;SDS011;11222;50.872;4.312;2023-02-22T12:00:37;39.70;;;24.88;;
22111;SDS011;11222;50.872;4.312;2023-02-22T12:03:17;38.75;;;26.75;;
22111;SDS011;11222;50.872;4.312;2023-02-22T12:22:35;39.88;;;28.23;;
22111;SDS011;11222;50.872;4.312;2023-02-22T12:30:45;39.95;;;28.52;;
22111;SDS011;11222;50.872;4.312;2023-02-22T12:33:25;41.88;;;29.17;;
22111;SDS011;11222;50.872;4.312;2023-02-22T12:35:55;43.05;;;29.20;;
22111;SDS011;11222;50.872;4.312;2023-02-22T12:38:27;39.67;;;29.13;;
22111;SDS011;11222;50.872;4.312;2023-02-22T12:46:46;42.13;;;29.67;;
22111;SDS011;11222;50.872;4.312;2023-02-22T12:55:16;42.88;;;31.20;;
22111;SDS011;11222;50.872;4.312;2023-02-22T12:58:01;41.30;;;29.77;;
22111;SDS011;11222;50.872;4.312;2023-02-22T13:01:24;43.30;;;29.55;;
22111;SDS011;11222;50.872;4.312;2023-02-22T13:03:45;42.00;;;29.02;;
22111;SDS011;11222;50.872;4.312;2023-02-22T13:12:34;46.78;;;30.50;;
22111;SDS011;11222;50.872;4.312;2023-02-22T13:20:19;46.03;;;31.55;;
22111;SDS011;11222;50.872;4.312;2023-02-22T13:23:00;45.97;;;31.25;;
22111;SDS011;11222;50.872;4.312;2023-02-22T13:25:36;42.83;;;29.80;;
22111;SDS011;11222;50.872;4.312;2023-02-22T13:52:54;50.72;;;34.78;;
22111;SDS011;11222;50.872;4.312;2023-02-22T13:55:23;51.08;;;35.10;;
22111;SDS011;11222;50.872;4.312;2023-02-22T13:58:06;50.67;;;33.63;;
22111;SDS011;11222;50.872;4.312;2023-02-22T14:03:49;54.78;;;34.78;;
22111;SDS011;11222;50.872;4.312;2023-02-22T14:05:54;51.28;;;34.35;;
22111;SDS011;11222;50.872;4.312;2023-02-22T14:13:22;51.28;;;35.47;;
22111;SDS011;11222;50.872;4.312;2023-02-22T14:21:17;53.10;;;36.50;;
22111;SDS011;11222;50.872;4.312;2023-02-22T14:23:47;57.92;;;38.08;;
22111;SDS011;11222;50.872;4.312;2023-02-22T14:31:33;60.58;;;36.67;;
22111;SDS011;11222;50.872;4.312;2023-02-22T14:34:16;67.03;;;39.10;;
22111;SDS011;11222;50.872;4.312;2023-02-22T14:39:35;56.10;;;38.05;;
22111;SDS011;11222;50.872;4.312;2023-02-22T14:49:56;65.00;;;40.15;;
22111;SDS011;11222;50.872;4.312;2023-02-22T14:52:29;65.18;;;41.50;;
22111;SDS011;11222;50.872;4.312;2023-02-22T14:55:16;63.72;;;42.38;;
22111;SDS011;11222;50.872;4.312;2023-02-22T15:00:45;70.80;;;43.95;;
22111;SDS011;11222;50.872;4.312;2023-02-22T15:03:23;64.57;;;41.63;;
22111;SDS011;11222;50.872;4.312;2023-02-22T15:06:20;63.50;;;42.00;;
22111;SDS011;11222;50.872;4.312;2023-02-22T15:08:48;65.45;;;42.03;;
22111;SDS011;11222;50.872;4.312;2023-02-22T15:11:51;62.70;;;40.75;;
22111;SDS011;11222;50.872;4.312;2023-02-22T15:14:30;64.28;;;41.03;;
22111;SDS011;11222;50.872;4.312;2023-02-22T15:17:02;72.70;;;40.92;;
22111;SDS011;11222;50.872;4.312;2023-02-22T15:19:37;65.22;;;41.25;;
22111;SDS011;11222;50.872;4.312;2023-02-22T15:22:05;68.10;;;41.30;;
22111;SDS011;11222;50.872;4.312;2023-02-22T15:25:08;68.13;;;42.05;;
22111;SDS011;11222;50.872;4.312;2023-02-22T15:27:36;66.63;;;42.13;;
22111;SDS011;11222;50.872;4.312;2023-02-22T15:30:05;66.55;;;41.10;;
22111;SDS011;11222;50.872;4.312;2023-02-22T15:32:40;66.03;;;39.42;;
22111;SDS011;11222;50.872;4.312;2023-02-22T15:35:13;70.63;;;42.03;;
22111;SDS011;11222;50.872;4.312;2023-02-22T15:37:45;74.28;;;39.95;;
22111;SDS011;11222;50.872;4.312;2023-02-22T15:40:16;75.60;;;41.58;;
22111;SDS011;11222;50.872;4.312;2023-02-22T15:42:44;72.15;;;41.95;;
22111;SDS011;11222;50.872;4.312;2023-02-22T15:45:19;75.28;;;42.63;;
22111;SDS011;11222;50.872;4.312;2023-02-22T15:47:47;77.30;;;43.28;;
22111;SDS011;11222;50.872;4.312;2023-02-22T15:50:18;71.28;;;40.85;;
22111;SDS011;11222;50.872;4.312;2023-02-22T15:53:17;74.10;;;40.58;;
22111;SDS011;11222;50.872;4.312;2023-02-22T15:55:56;62.72;;;37.38;;
22111;SDS011;11222;50.872;4.312;2023-02-22T15:58:25;70.80;;;39.38;;
22111;SDS011;11222;50.872;4.312;2023-02-22T16:01:05;68.72;;;37.65;;
22111;SDS011;11222;50.872;4.312;2023-02-22T16:03:42;65.30;;;36.95;;
22111;SDS011;11222;50.872;4.312;2023-02-22T16:06:32;73.95;;;39.92;;
22111;SDS011;11222;50.872;4.312;2023-02-22T16:09:12;70.32;;;37.70;;
22111;SDS011;11222;50.872;4.312;2023-02-22T16:11:47;71.35;;;39.30;;
22111;SDS011;11222;50.872;4.312;2023-02-22T16:14:23;83.80;;;44.53;;
22111;SDS011;11222;50.872;4.312;2023-02-22T16:19:55;81.93;;;42.45;;
22111;SDS011;11222;50.872;4.312;2023-02-22T16:24:51;82.63;;;43.90;;
22111;SDS011;11222;50.872;4.312;2023-02-22T16:27:19;79.78;;;44.42;;
22111;SDS011;11222;50.872;4.312;2023-02-22T16:30:03;87.43;;;44.63;;
22111;SDS011;11222;50.872;4.312;2023-02-22T16:32:32;80.45;;;43.85;;
22111;SDS011;11222;50.872;4.312;2023-02-22T16:34:58;84.85;;;46.58;;
22111;SDS011;11222;50.872;4.312;2023-02-22T16:37:24;84.90;;;45.42;;
22111;SDS011;11222;50.872;4.312;2023-02-22T16:39:52;79.93;;;45.70;;
22111;SDS011;11222;50.872;4.312;2023-02-22T16:42:18;86.47;;;45.40;;
22111;SDS011;11222;50.872;4.312;2023-02-22T16:44:49;106.63;;;55.53;;
22111;SDS011;11222;50.872;4.312;2023-02-22T16:47:15;85.38;;;46.15;;
22111;SDS011;11222;50.872;4.312;2023-02-22T16:49:42;89.43;;;46.22;;
22111;SDS011;11222;50.872;4.312;2023-02-22T16:52:07;90.03;;;48.13;;
22111;SDS011;11222;50.872;4.312;2023-02-22T16:54:34;94.93;;;47.83;;
22111;SDS011;11222;50.872;4.312;2023-02-22T16:57:05;91.97;;;47.08;;
22111;SDS011;11222;50.872;4.312;2023-02-22T16:59:32;98.80;;;48.35;;
22111;SDS011;11222;50.872;4.312;2023-02-22T17:02:02;93.25;;;49.50;;
22111;SDS011;11222;50.872;4.312;2023-02-22T17:04:31;104.90;;;50.17;;
22111;SDS011;11222;50.872;4.312;2023-02-22T17:06:58;101.07;;;48.83;;
22111;SDS011;11222;50.872;4.312;2023-02-22T17:09:24;91.43;;;48.67;;
22111;SDS011;11222;50.872;4.312;2023-02-22T17:11:50;100.30;;;48.83;;
22111;SDS011;11222;50.872;4.312;2023-02-22T17:14:17;95.97;;;46.35;;
22111;SDS011;11222;50.872;4.312;2023-02-22T17:16:50;100.43;;;49.97;;
22111;SDS011;11222;50.872;4.312;2023-02-22T17:19:18;110.68;;;50.65;;
22111;SDS011;11222;50.872;4.312;2023-02-22T17:21:45;106.75;;;49.72;;
22111;SDS011;11222;50.872;4.312;2023-02-22T17:24:12;97.15;;;49.72;;
22111;SDS011;11222;50.872;4.312;2023-02-22T17:26:40;101.10;;;48.63;;
22111;SDS011;11222;50.872;4.312;2023-02-22T17:29:06;107.10;;;50.72;;
22111;SDS011;11222;50.872;4.312;2023-02-22T17:31:32;106.18;;;51.00;;
22111;SDS011;11222;50.872;4.312;2023-02-22T17:33:59;111.05;;;55.00;;
22111;SDS011;11222;50.872;4.312;2023-02-22T17:36:27;110.82;;;57.53;;